Accueil
METAR-TAF:

METAR-TAF

Aéroports :

Aéroport international de Yangyang

Yangyang, Corée du Sud

latitude: 38-03-41N, longitude: 128-40-09E, altitude: 73 m

Observation

Le bulletin a été fait il y a 35 minutes, à 21:00 UTC
Vent 13 kt de ouest
Température 1°C
Humidité 37%
Pression 1026 hPa
Visibilité 10 km ou plus

METAR: RKNY 182100Z AUTO 27013KT 9999 NCD 01/M12 Q1026

Heure: 06:35 (21:35 UTC)

Prévision

Le bulletin a été fait il y a 4 heures et 35 minutes, à 17:00 UTC
Prévision valable du 18 à 18 UTC au 19 à 24 UTC
Vent 8 kt de ouest
Visibilité 10 km ou plus
pas de nuages en-dessous de 1500 mètres et pas de cumulonimbus.
Evoluant progressivement
du 19 à 01 UTC au 19 à 02 UTC
Vent 7 kt de est
Evoluant progressivement
du 19 à 08 UTC au 19 à 09 UTC
Vent 6 kt de ouest

TAF: RKNY 181700Z 1818/1924 26008KT CAVOK TN01/1822Z TX08/1906Z TN03/1922Z BECMG 1901/1902 08007KT BECMG 1908/1909 26006KT

Observations et prévisions météorologiques de plus de 4000 aéroports (messages METAR et TAF).

Les stations disponibles sont représentées par des disques jaunes et rouges sur la carte.

Passer la souris dessus pour voir le nom de la station.

Cliquer dessus pour voir les observations et prévisions météorologiques.

Pour changer de carte: cliquez sur les boutons verts avec une croix noire pour zoomer, sur le bouton vert avec un tiret pour effectuer un zoom arrière, ou sur les flèches vertes pour les cartes adjacentes.


METAR-TAF: